sensor_id;sensor_type;location;lat;lon;timestamp;P1;durP1;ratioP1;P2;durP2;ratioP2
40022;SDS011;25713;-35.352;149.036;2023-03-23T00:00:24;2.13;;;1.80;;
40022;SDS011;25713;-35.352;149.036;2023-03-23T00:02:54;2.90;;;1.65;;
40022;SDS011;25713;-35.352;149.036;2023-03-23T00:05:27;4.70;;;1.98;;
40022;SDS011;25713;-35.352;149.036;2023-03-23T00:07:57;3.22;;;2.10;;
40022;SDS011;25713;-35.352;149.036;2023-03-23T00:10:26;2.30;;;2.05;;
40022;SDS011;25713;-35.352;149.036;2023-03-23T00:12:56;2.20;;;2.00;;
40022;SDS011;25713;-35.352;149.036;2023-03-23T00:15:26;2.47;;;2.00;;
40022;SDS011;25713;-35.352;149.036;2023-03-23T00:17:56;4.80;;;1.85;;
40022;SDS011;25713;-35.352;149.036;2023-03-23T00:20:28;3.25;;;2.00;;
40022;SDS011;25713;-35.352;149.036;2023-03-23T00:22:58;4.70;;;1.80;;
40022;SDS011;25713;-35.352;149.036;2023-03-23T00:25:28;2.42;;;2.05;;
40022;SDS011;25713;-35.352;149.036;2023-03-23T00:27:57;3.08;;;1.75;;
40022;SDS011;25713;-35.352;149.036;2023-03-23T00:30:27;2.40;;;2.20;;
40022;SDS011;25713;-35.352;149.036;2023-03-23T00:32:56;3.00;;;2.13;;
40022;SDS011;25713;-35.352;149.036;2023-03-23T00:35:27;3.80;;;1.92;;
40022;SDS011;25713;-35.352;149.036;2023-03-23T00:37:57;2.15;;;1.90;;
40022;SDS011;25713;-35.352;149.036;2023-03-23T00:40:27;2.55;;;2.20;;
40022;SDS011;25713;-35.352;149.036;2023-03-23T00:42:57;2.42;;;1.70;;
40022;SDS011;25713;-35.352;149.036;2023-03-23T00:45:26;2.92;;;2.08;;
40022;SDS011;25713;-35.352;149.036;2023-03-23T00:47:55;2.20;;;2.00;;
40022;SDS011;25713;-35.352;149.036;2023-03-23T00:50:30;2.88;;;2.20;;
40022;SDS011;25713;-35.352;149.036;2023-03-23T00:52:59;2.63;;;1.83;;
40022;SDS011;25713;-35.352;149.036;2023-03-23T00:55:29;4.13;;;2.28;;
40022;SDS011;25713;-35.352;149.036;2023-03-23T00:57:59;3.22;;;2.03;;
40022;SDS011;25713;-35.352;149.036;2023-03-23T01:00:29;4.32;;;1.80;;
40022;SDS011;25713;-35.352;149.036;2023-03-23T01:02:58;2.55;;;2.15;;
40022;SDS011;25713;-35.352;149.036;2023-03-23T01:05:32;3.65;;;2.05;;
40022;SDS011;25713;-35.352;149.036;2023-03-23T01:08:03;3.60;;;2.00;;
40022;SDS011;25713;-35.352;149.036;2023-03-23T01:10:33;2.83;;;2.05;;
40022;SDS011;25713;-35.352;149.036;2023-03-23T01:13:03;1.95;;;1.50;;
40022;SDS011;25713;-35.352;149.036;2023-03-23T01:15:34;2.22;;;1.70;;
40022;SDS011;25713;-35.352;149.036;2023-03-23T01:18:03;5.95;;;2.00;;
40022;SDS011;25713;-35.352;149.036;2023-03-23T01:20:37;1.80;;;1.70;;
40022;SDS011;25713;-35.352;149.036;2023-03-23T01:23:07;2.75;;;1.55;;
40022;SDS011;25713;-35.352;149.036;2023-03-23T01:25:37;3.35;;;1.90;;
40022;SDS011;25713;-35.352;149.036;2023-03-23T01:28:06;3.47;;;1.83;;
40022;SDS011;25713;-35.352;149.036;2023-03-23T01:30:36;3.25;;;1.75;;
40022;SDS011;25713;-35.352;149.036;2023-03-23T01:33:06;3.22;;;1.60;;
40022;SDS011;25713;-35.352;149.036;2023-03-23T01:35:40;2.53;;;2.03;;
40022;SDS011;25713;-35.352;149.036;2023-03-23T01:38:10;2.30;;;1.83;;
40022;SDS011;25713;-35.352;149.036;2023-03-23T01:40:39;2.63;;;1.83;;
40022;SDS011;25713;-35.352;149.036;2023-03-23T01:43:11;3.13;;;1.70;;
40022;SDS011;25713;-35.352;149.036;2023-03-23T01:45:44;4.55;;;2.10;;
40022;SDS011;25713;-35.352;149.036;2023-03-23T01:48:15;2.72;;;1.85;;
40022;SDS011;25713;-35.352;149.036;2023-03-23T01:50:53;2.28;;;1.92;;
40022;SDS011;25713;-35.352;149.036;2023-03-23T01:53:28;2.10;;;1.90;;
40022;SDS011;25713;-35.352;149.036;2023-03-23T01:56:01;2.08;;;1.75;;
40022;SDS011;25713;-35.352;149.036;2023-03-23T01:58:31;2.20;;;1.67;;
40022;SDS011;25713;-35.352;149.036;2023-03-23T02:01:03;2.65;;;1.70;;
40022;SDS011;25713;-35.352;149.036;2023-03-23T02:03:37;2.60;;;1.50;;
40022;SDS011;25713;-35.352;149.036;2023-03-23T02:06:12;1.70;;;1.60;;
40022;SDS011;25713;-35.352;149.036;2023-03-23T02:09:01;2.30;;;1.50;;
40022;SDS011;25713;-35.352;149.036;2023-03-23T02:11:31;2.10;;;1.50;;
40022;SDS011;25713;-35.352;149.036;2023-03-23T02:14:01;1.83;;;1.40;;
40022;SDS011;25713;-35.352;149.036;2023-03-23T02:16:33;2.80;;;2.05;;
40022;SDS011;25713;-35.352;149.036;2023-03-23T02:19:16;1.63;;;1.30;;
40022;SDS011;25713;-35.352;149.036;2023-03-23T02:22:04;1.80;;;1.35;;
40022;SDS011;25713;-35.352;149.036;2023-03-23T02:25:03;3.75;;;1.35;;
40022;SDS011;25713;-35.352;149.036;2023-03-23T02:27:55;2.13;;;1.10;;
40022;SDS011;25713;-35.352;149.036;2023-03-23T02:30:47;1.65;;;1.30;;
40022;SDS011;25713;-35.352;149.036;2023-03-23T02:36:22;1.95;;;1.30;;
40022;SDS011;25713;-35.352;149.036;2023-03-23T02:38:56;3.13;;;1.20;;
40022;SDS011;25713;-35.352;149.036;2023-03-23T02:41:30;1.20;;;1.10;;
40022;SDS011;25713;-35.352;149.036;2023-03-23T02:44:03;1.38;;;1.10;;
40022;SDS011;25713;-35.352;149.036;2023-03-23T02:46:37;1.70;;;1.50;;
40022;SDS011;25713;-35.352;149.036;2023-03-23T02:49:12;1.10;;;1.00;;
40022;SDS011;25713;-35.352;149.036;2023-03-23T02:51:44;1.98;;;1.10;;
40022;SDS011;25713;-35.352;149.036;2023-03-23T02:54:15;2.33;;;1.15;;
40022;SDS011;25713;-35.352;149.036;2023-03-23T02:56:46;1.27;;;1.10;;
40022;SDS011;25713;-35.352;149.036;2023-03-23T02:59:23;1.25;;;1.15;;
40022;SDS011;25713;-35.352;149.036;2023-03-23T03:02:02;1.80;;;1.17;;
40022;SDS011;25713;-35.352;149.036;2023-03-23T03:04:37;1.35;;;1.00;;
40022;SDS011;25713;-35.352;149.036;2023-03-23T03:07:14;1.10;;;1.00;;
40022;SDS011;25713;-35.352;149.036;2023-03-23T03:10:05;1.17;;;1.05;;
40022;SDS011;25713;-35.352;149.036;2023-03-23T03:12:43;1.30;;;1.20;;
40022;SDS011;25713;-35.352;149.036;2023-03-23T03:15:19;2.95;;;1.33;;
40022;SDS011;25713;-35.352;149.036;2023-03-23T03:17:57;1.50;;;1.20;;
40022;SDS011;25713;-35.352;149.036;2023-03-23T03:20:37;2.45;;;1.30;;
40022;SDS011;25713;-35.352;149.036;2023-03-23T03:23:12;1.45;;;1.10;;
40022;SDS011;25713;-35.352;149.036;2023-03-23T03:25:44;1.20;;;1.10;;
40022;SDS011;25713;-35.352;149.036;2023-03-23T03:28:23;2.65;;;1.35;;
40022;SDS011;25713;-35.352;149.036;2023-03-23T03:30:54;1.40;;;1.15;;
40022;SDS011;25713;-35.352;149.036;2023-03-23T03:33:25;1.30;;;1.20;;
40022;SDS011;25713;-35.352;149.036;2023-03-23T03:36:01;1.92;;;1.20;;
40022;SDS011;25713;-35.352;149.036;2023-03-23T03:38:40;1.60;;;1.33;;
40022;SDS011;25713;-35.352;149.036;2023-03-23T03:41:11;1.40;;;1.08;;
40022;SDS011;25713;-35.352;149.036;2023-03-23T03:43:40;1.30;;;1.20;;
40022;SDS011;25713;-35.352;149.036;2023-03-23T03:46:11;1.48;;;1.20;;
40022;SDS011;25713;-35.352;149.036;2023-03-23T03:48:41;1.92;;;1.20;;
40022;SDS011;25713;-35.352;149.036;2023-03-23T03:51:15;1.98;;;1.45;;
40022;SDS011;25713;-35.352;149.036;2023-03-23T03:53:49;2.08;;;1.50;;
40022;SDS011;25713;-35.352;149.036;2023-03-23T03:56:19;2.40;;;1.30;;
40022;SDS011;25713;-35.352;149.036;2023-03-23T03:59:01;2.25;;;1.30;;
40022;SDS011;25713;-35.352;149.036;2023-03-23T04:01:48;1.58;;;1.40;;
40022;SDS011;25713;-35.352;149.036;2023-03-23T04:04:18;2.25;;;1.10;;
40022;SDS011;25713;-35.352;149.036;2023-03-23T04:06:52;1.85;;;1.40;;
40022;SDS011;25713;-35.352;149.036;2023-03-23T04:09:22;2.08;;;1.40;;
40022;SDS011;25713;-35.352;149.036;2023-03-23T04:11:53;2.38;;;1.33;;
40022;SDS011;25713;-35.352;149.036;2023-03-23T04:14:41;2.00;;;1.40;;
40022;SDS011;25713;-35.352;149.036;2023-03-23T04:17:10;2.53;;;1.15;;
40022;SDS011;25713;-35.352;149.036;2023-03-23T04:19:40;2.45;;;1.00;;
40022;SDS011;25713;-35.352;149.036;2023-03-23T04:22:17;0.98;;;0.93;;
40022;SDS011;25713;-35.352;149.036;2023-03-23T04:24:48;1.50;;;1.15;;
40022;SDS011;25713;-35.352;149.036;2023-03-23T04:27:19;3.13;;;1.15;;
40022;SDS011;25713;-35.352;149.036;2023-03-23T04:29:49;2.67;;;1.30;;
40022;SDS011;25713;-35.352;149.036;2023-03-23T04:32:38;1.80;;;1.50;;
40022;SDS011;25713;-35.352;149.036;2023-03-23T04:35:08;1.30;;;1.10;;
40022;SDS011;25713;-35.352;149.036;2023-03-23T04:37:47;1.83;;;1.30;;
40022;SDS011;25713;-35.352;149.036;2023-03-23T04:40:19;1.75;;;1.40;;
40022;SDS011;25713;-35.352;149.036;2023-03-23T04:43:04;2.95;;;1.30;;
40022;SDS011;25713;-35.352;149.036;2023-03-23T04:45:53;1.45;;;1.25;;
40022;SDS011;25713;-35.352;149.036;2023-03-23T04:48:25;1.83;;;1.20;;
40022;SDS011;25713;-35.352;149.036;2023-03-23T04:51:06;4.32;;;1.15;;
40022;SDS011;25713;-35.352;149.036;2023-03-23T04:53:43;2.97;;;1.20;;
40022;SDS011;25713;-35.352;149.036;2023-03-23T04:56:13;1.38;;;1.27;;
40022;SDS011;25713;-35.352;149.036;2023-03-23T04:58:46;1.98;;;1.35;;
40022;SDS011;25713;-35.352;149.036;2023-03-23T05:01:39;1.75;;;1.20;;
40022;SDS011;25713;-35.352;149.036;2023-03-23T05:04:17;1.30;;;1.20;;
40022;SDS011;25713;-35.352;149.036;2023-03-23T05:06:58;2.38;;;1.23;;
40022;SDS011;25713;-35.352;149.036;2023-03-23T05:09:34;2.28;;;1.27;;
40022;SDS011;25713;-35.352;149.036;2023-03-23T05:12:04;1.38;;;1.17;;
40022;SDS011;25713;-35.352;149.036;2023-03-23T05:14:40;1.80;;;1.40;;
40022;SDS011;25713;-35.352;149.036;2023-03-23T05:17:13;1.50;;;1.13;;
40022;SDS011;25713;-35.352;149.036;2023-03-23T05:19:43;1.23;;;1.00;;
40022;SDS011;25713;-35.352;149.036;2023-03-23T05:22:29;1.33;;;1.23;;
40022;SDS011;25713;-35.352;149.036;2023-03-23T05:25:02;2.42;;;1.30;;
40022;SDS011;25713;-35.352;149.036;2023-03-23T05:27:35;1.40;;;1.20;;
40022;SDS011;25713;-35.352;149.036;2023-03-23T05:30:19;1.35;;;1.20;;
40022;SDS011;25713;-35.352;149.036;2023-03-23T05:32:49;1.30;;;1.20;;
40022;SDS011;25713;-35.352;149.036;2023-03-23T05:35:29;4.47;;;1.48;;
40022;SDS011;25713;-35.352;149.036;2023-03-23T05:38:00;1.30;;;1.20;;
40022;SDS011;25713;-35.352;149.036;2023-03-23T05:40:34;1.40;;;1.30;;
40022;SDS011;25713;-35.352;149.036;2023-03-23T05:43:10;1.65;;;1.33;;
40022;SDS011;25713;-35.352;149.036;2023-03-23T05:45:59;1.23;;;1.13;;
40022;SDS011;25713;-35.352;149.036;2023-03-23T05:48:28;1.38;;;1.08;;
40022;SDS011;25713;-35.352;149.036;2023-03-23T05:50:59;1.15;;;1.10;;
40022;SDS011;25713;-35.352;149.036;2023-03-23T05:53:30;1.75;;;1.17;;
40022;SDS011;25713;-35.352;149.036;2023-03-23T05:56:03;1.88;;;1.00;;
40022;SDS011;25713;-35.352;149.036;2023-03-23T05:58:47;1.70;;;1.10;;
40022;SDS011;25713;-35.352;149.036;2023-03-23T06:01:16;1.75;;;1.10;;
40022;SDS011;25713;-35.352;149.036;2023-03-23T06:03:46;3.50;;;1.33;;
40022;SDS011;25713;-35.352;149.036;2023-03-23T06:06:23;1.40;;;1.30;;
40022;SDS011;25713;-35.352;149.036;2023-03-23T06:08:57;1.45;;;1.20;;
40022;SDS011;25713;-35.352;149.036;2023-03-23T06:14:37;1.67;;;1.30;;
40022;SDS011;25713;-35.352;149.036;2023-03-23T06:17:07;1.75;;;1.13;;
40022;SDS011;25713;-35.352;149.036;2023-03-23T06:19:37;2.08;;;1.05;;
40022;SDS011;25713;-35.352;149.036;2023-03-23T06:22:12;1.17;;;1.02;;
40022;SDS011;25713;-35.352;149.036;2023-03-23T06:25:19;2.30;;;1.00;;
40022;SDS011;25713;-35.352;149.036;2023-03-23T06:27:52;1.02;;;0.90;;
40022;SDS011;25713;-35.352;149.036;2023-03-23T06:30:21;1.55;;;1.10;;
40022;SDS011;25713;-35.352;149.036;2023-03-23T06:32:51;1.20;;;1.10;;
40022;SDS011;25713;-35.352;149.036;2023-03-23T06:35:40;1.20;;;1.10;;
40022;SDS011;25713;-35.352;149.036;2023-03-23T06:38:30;2.47;;;0.90;;
40022;SDS011;25713;-35.352;149.036;2023-03-23T06:40:59;2.05;;;1.10;;
40022;SDS011;25713;-35.352;149.036;2023-03-23T06:43:34;1.85;;;1.00;;
40022;SDS011;25713;-35.352;149.036;2023-03-23T06:46:13;1.30;;;1.00;;
40022;SDS011;25713;-35.352;149.036;2023-03-23T06:48:42;0.70;;;0.70;;
40022;SDS011;25713;-35.352;149.036;2023-03-23T06:51:17;2.67;;;0.82;;
40022;SDS011;25713;-35.352;149.036;2023-03-23T06:53:51;1.15;;;1.00;;
40022;SDS011;25713;-35.352;149.036;2023-03-23T06:56:21;1.00;;;0.88;;
40022;SDS011;25713;-35.352;149.036;2023-03-23T06:58:53;1.20;;;0.85;;
40022;SDS011;25713;-35.352;149.036;2023-03-23T07:01:24;2.50;;;0.95;;
40022;SDS011;25713;-35.352;149.036;2023-03-23T07:03:59;1.23;;;0.93;;
40022;SDS011;25713;-35.352;149.036;2023-03-23T07:06:39;1.38;;;0.95;;
40022;SDS011;25713;-35.352;149.036;2023-03-23T07:09:09;1.40;;;0.82;;
40022;SDS011;25713;-35.352;149.036;2023-03-23T07:11:39;0.80;;;0.80;;
40022;SDS011;25713;-35.352;149.036;2023-03-23T07:14:21;1.05;;;0.90;;
40022;SDS011;25713;-35.352;149.036;2023-03-23T07:16:52;0.95;;;0.90;;
40022;SDS011;25713;-35.352;149.036;2023-03-23T07:19:21;2.90;;;1.23;;
40022;SDS011;25713;-35.352;149.036;2023-03-23T07:21:51;0.90;;;0.90;;
40022;SDS011;25713;-35.352;149.036;2023-03-23T07:24:23;1.73;;;0.90;;
40022;SDS011;25713;-35.352;149.036;2023-03-23T07:27:22;1.17;;;1.08;;
40022;SDS011;25713;-35.352;149.036;2023-03-23T07:29:57;1.00;;;0.90;;
40022;SDS011;25713;-35.352;149.036;2023-03-23T07:32:27;1.20;;;0.98;;
40022;SDS011;25713;-35.352;149.036;2023-03-23T07:34:57;1.10;;;0.90;;
40022;SDS011;25713;-35.352;149.036;2023-03-23T07:37:44;1.00;;;0.90;;
40022;SDS011;25713;-35.352;149.036;2023-03-23T07:40:13;1.00;;;0.90;;
40022;SDS011;25713;-35.352;149.036;2023-03-23T07:42:51;1.20;;;0.90;;
40022;SDS011;25713;-35.352;149.036;2023-03-23T07:45:38;0.70;;;0.70;;
40022;SDS011;25713;-35.352;149.036;2023-03-23T07:48:07;1.43;;;1.00;;
40022;SDS011;25713;-35.352;149.036;2023-03-23T07:50:37;0.80;;;0.80;;
40022;SDS011;25713;-35.352;149.036;2023-03-23T07:53:10;0.90;;;0.85;;
40022;SDS011;25713;-35.352;149.036;2023-03-23T07:55:41;1.98;;;0.85;;
40022;SDS011;25713;-35.352;149.036;2023-03-23T07:58:34;1.35;;;0.90;;
40022;SDS011;25713;-35.352;149.036;2023-03-23T08:01:05;0.80;;;0.80;;
40022;SDS011;25713;-35.352;149.036;2023-03-23T08:03:36;1.45;;;0.88;;
40022;SDS011;25713;-35.352;149.036;2023-03-23T08:06:14;0.80;;;0.80;;
40022;SDS011;25713;-35.352;149.036;2023-03-23T08:09:16;1.00;;;0.90;;
40022;SDS011;25713;-35.352;149.036;2023-03-23T08:12:13;1.38;;;0.98;;
40022;SDS011;25713;-35.352;149.036;2023-03-23T08:15:09;2.10;;;0.80;;
40022;SDS011;25713;-35.352;149.036;2023-03-23T08:18:04;1.08;;;1.00;;
40022;SDS011;25713;-35.352;149.036;2023-03-23T08:20:54;1.42;;;0.90;;
40022;SDS011;25713;-35.352;149.036;2023-03-23T08:23:46;1.35;;;0.90;;
40022;SDS011;25713;-35.352;149.036;2023-03-23T08:26:36;1.08;;;0.90;;
40022;SDS011;25713;-35.352;149.036;2023-03-23T08:29:11;1.77;;;1.23;;
40022;SDS011;25713;-35.352;149.036;2023-03-23T08:32:02;1.27;;;0.90;;
40022;SDS011;25713;-35.352;149.036;2023-03-23T08:34:57;0.82;;;0.80;;
40022;SDS011;25713;-35.352;149.036;2023-03-23T08:37:44;1.25;;;0.88;;
40022;SDS011;25713;-35.352;149.036;2023-03-23T08:40:33;1.70;;;1.05;;
40022;SDS011;25713;-35.352;149.036;2023-03-23T08:43:20;0.90;;;0.90;;
40022;SDS011;25713;-35.352;149.036;2023-03-23T08:46:12;1.10;;;1.00;;
40022;SDS011;25713;-35.352;149.036;2023-03-23T08:48:50;2.47;;;1.00;;
40022;SDS011;25713;-35.352;149.036;2023-03-23T08:51:51;1.08;;;0.98;;
40022;SDS011;25713;-35.352;149.036;2023-03-23T08:54:39;2.25;;;1.20;;
40022;SDS011;25713;-35.352;149.036;2023-03-23T08:57:38;0.90;;;0.90;;
40022;SDS011;25713;-35.352;149.036;2023-03-23T09:00:39;1.92;;;1.13;;
40022;SDS011;25713;-35.352;149.036;2023-03-23T09:03:24;1.30;;;0.90;;
40022;SDS011;25713;-35.352;149.036;2023-03-23T09:06:02;1.15;;;0.90;;
40022;SDS011;25713;-35.352;149.036;2023-03-23T09:09:01;1.30;;;0.82;;
40022;SDS011;25713;-35.352;149.036;2023-03-23T09:11:31;1.38;;;1.13;;
40022;SDS011;25713;-35.352;149.036;2023-03-23T09:14:00;1.10;;;0.98;;
40022;SDS011;25713;-35.352;149.036;2023-03-23T09:16:31;1.15;;;0.85;;
40022;SDS011;25713;-35.352;149.036;2023-03-23T09:19:00;1.00;;;0.90;;
40022;SDS011;25713;-35.352;149.036;2023-03-23T09:21:30;1.20;;;1.10;;
40022;SDS011;25713;-35.352;149.036;2023-03-23T09:24:01;1.38;;;1.10;;
40022;SDS011;25713;-35.352;149.036;2023-03-23T09:26:31;1.35;;;1.25;;
40022;SDS011;25713;-35.352;149.036;2023-03-23T09:29:00;1.30;;;1.15;;
40022;SDS011;25713;-35.352;149.036;2023-03-23T09:31:30;1.50;;;1.10;;
40022;SDS011;25713;-35.352;149.036;2023-03-23T09:33:59;1.20;;;1.10;;
40022;SDS011;25713;-35.352;149.036;2023-03-23T09:36:28;1.20;;;1.10;;
40022;SDS011;25713;-35.352;149.036;2023-03-23T09:38:58;1.30;;;1.20;;
40022;SDS011;25713;-35.352;149.036;2023-03-23T09:44:37;1.65;;;1.10;;
40022;SDS011;25713;-35.352;149.036;2023-03-23T09:47:16;3.05;;;1.20;;
40022;SDS011;25713;-35.352;149.036;2023-03-23T09:49:50;1.98;;;1.00;;
40022;SDS011;25713;-35.352;149.036;2023-03-23T09:52:26;1.52;;;1.20;;
40022;SDS011;25713;-35.352;149.036;2023-03-23T09:55:03;1.15;;;1.05;;
40022;SDS011;25713;-35.352;149.036;2023-03-23T09:57:37;3.35;;;0.98;;
40022;SDS011;25713;-35.352;149.036;2023-03-23T10:00:12;1.48;;;1.00;;
40022;SDS011;25713;-35.352;149.036;2023-03-23T10:02:48;1.35;;;1.00;;
40022;SDS011;25713;-35.352;149.036;2023-03-23T10:05:29;3.42;;;1.40;;
40022;SDS011;25713;-35.352;149.036;2023-03-23T10:08:00;1.27;;;1.05;;
40022;SDS011;25713;-35.352;149.036;2023-03-23T10:10:36;1.23;;;1.00;;
40022;SDS011;25713;-35.352;149.036;2023-03-23T10:13:18;1.10;;;1.00;;
40022;SDS011;25713;-35.352;149.036;2023-03-23T10:15:54;2.10;;;1.17;;
40022;SDS011;25713;-35.352;149.036;2023-03-23T10:18:26;2.17;;;1.10;;
40022;SDS011;25713;-35.352;149.036;2023-03-23T10:20:59;1.67;;;0.90;;
40022;SDS011;25713;-35.352;149.036;2023-03-23T10:23:44;0.80;;;0.80;;
40022;SDS011;25713;-35.352;149.036;2023-03-23T10:26:29;3.15;;;0.90;;
40022;SDS011;25713;-35.352;149.036;2023-03-23T10:29:10;0.82;;;0.82;;
40022;SDS011;25713;-35.352;149.036;2023-03-23T10:31:43;1.02;;;0.70;;
40022;SDS011;25713;-35.352;149.036;2023-03-23T10:34:18;1.52;;;0.90;;
40022;SDS011;25713;-35.352;149.036;2023-03-23T10:36:59;1.05;;;0.88;;
40022;SDS011;25713;-35.352;149.036;2023-03-23T10:39:31;0.93;;;0.82;;
40022;SDS011;25713;-35.352;149.036;2023-03-23T10:42:09;1.05;;;0.90;;
40022;SDS011;25713;-35.352;149.036;2023-03-23T10:44:38;0.80;;;0.63;;
40022;SDS011;25713;-35.352;149.036;2023-03-23T10:47:08;0.63;;;0.60;;
40022;SDS011;25713;-35.352;149.036;2023-03-23T10:49:38;0.70;;;0.70;;
40022;SDS011;25713;-35.352;149.036;2023-03-23T10:52:13;0.50;;;0.50;;
40022;SDS011;25713;-35.352;149.036;2023-03-23T10:54:55;0.85;;;0.70;;
40022;SDS011;25713;-35.352;149.036;2023-03-23T10:57:28;0.88;;;0.68;;
40022;SDS011;25713;-35.352;149.036;2023-03-23T11:02:30;0.70;;;0.52;;
40022;SDS011;25713;-35.352;149.036;2023-03-23T11:05:00;0.95;;;0.60;;
40022;SDS011;25713;-35.352;149.036;2023-03-23T11:07:31;0.60;;;0.50;;
40022;SDS011;25713;-35.352;149.036;2023-03-23T11:10:15;1.85;;;0.52;;
40022;SDS011;25713;-35.352;149.036;2023-03-23T11:12:51;1.75;;;1.25;;
40022;SDS011;25713;-35.352;149.036;2023-03-23T11:15:25;1.48;;;0.60;;
40022;SDS011;25713;-35.352;149.036;2023-03-23T11:17:57;1.48;;;0.50;;
40022;SDS011;25713;-35.352;149.036;2023-03-23T11:20:28;1.35;;;0.60;;
40022;SDS011;25713;-35.352;149.036;2023-03-23T11:23:17;0.77;;;0.60;;
40022;SDS011;25713;-35.352;149.036;2023-03-23T11:25:53;1.30;;;0.50;;
40022;SDS011;25713;-35.352;149.036;2023-03-23T11:28:31;0.68;;;0.57;;
40022;SDS011;25713;-35.352;149.036;2023-03-23T11:31:03;0.40;;;0.40;;
40022;SDS011;25713;-35.352;149.036;2023-03-23T11:33:37;0.50;;;0.50;;
40022;SDS011;25713;-35.352;149.036;2023-03-23T11:36:15;0.90;;;0.63;;
40022;SDS011;25713;-35.352;149.036;2023-03-23T11:38:44;0.70;;;0.50;;
40022;SDS011;25713;-35.352;149.036;2023-03-23T11:41:18;1.40;;;0.47;;
40022;SDS011;25713;-35.352;149.036;2023-03-23T11:43:52;0.70;;;0.50;;
40022;SDS011;25713;-35.352;149.036;2023-03-23T11:46:25;1.05;;;0.57;;
40022;SDS011;25713;-35.352;149.036;2023-03-23T11:49:01;1.05;;;0.50;;
40022;SDS011;25713;-35.352;149.036;2023-03-23T11:51:34;0.75;;;0.50;;
40022;SDS011;25713;-35.352;149.036;2023-03-23T11:54:09;0.52;;;0.52;;
40022;SDS011;25713;-35.352;149.036;2023-03-23T11:56:45;2.08;;;0.50;;
40022;SDS011;25713;-35.352;149.036;2023-03-23T11:59:17;0.73;;;0.40;;
40022;SDS011;25713;-35.352;149.036;2023-03-23T12:01:54;0.47;;;0.40;;
40022;SDS011;25713;-35.352;149.036;2023-03-23T12:04:40;0.90;;;0.45;;
40022;SDS011;25713;-35.352;149.036;2023-03-23T12:07:35;0.52;;;0.38;;
40022;SDS011;25713;-35.352;149.036;2023-03-23T12:10:17;0.70;;;0.43;;
40022;SDS011;25713;-35.352;149.036;2023-03-23T12:12:56;0.70;;;0.50;;
40022;SDS011;25713;-35.352;149.036;2023-03-23T12:15:40;0.98;;;0.50;;
40022;SDS011;25713;-35.352;149.036;2023-03-23T12:18:17;0.50;;;0.50;;
40022;SDS011;25713;-35.352;149.036;2023-03-23T12:20:56;0.77;;;0.50;;
40022;SDS011;25713;-35.352;149.036;2023-03-23T12:23:33;0.80;;;0.60;;
40022;SDS011;25713;-35.352;149.036;2023-03-23T12:28:59;2.17;;;0.70;;
40022;SDS011;25713;-35.352;149.036;2023-03-23T12:31:49;0.40;;;0.40;;
40022;SDS011;25713;-35.352;149.036;2023-03-23T12:34:30;0.73;;;0.50;;
40022;SDS011;25713;-35.352;149.036;2023-03-23T12:37:14;1.08;;;0.55;;
40022;SDS011;25713;-35.352;149.036;2023-03-23T12:40:00;0.73;;;0.50;;
40022;SDS011;25713;-35.352;149.036;2023-03-23T12:42:43;0.70;;;0.50;;
40022;SDS011;25713;-35.352;149.036;2023-03-23T12:45:19;0.85;;;0.60;;
40022;SDS011;25713;-35.352;149.036;2023-03-23T12:47:58;0.55;;;0.50;;
40022;SDS011;25713;-35.352;149.036;2023-03-23T12:50:32;0.60;;;0.50;;
40022;SDS011;25713;-35.352;149.036;2023-03-23T12:53:06;0.88;;;0.50;;
40022;SDS011;25713;-35.352;149.036;2023-03-23T12:55:43;1.38;;;0.70;;
40022;SDS011;25713;-35.352;149.036;2023-03-23T12:58:15;0.85;;;0.60;;
40022;SDS011;25713;-35.352;149.036;2023-03-23T13:00:54;1.00;;;0.75;;
40022;SDS011;25713;-35.352;149.036;2023-03-23T13:03:28;1.25;;;0.80;;
40022;SDS011;25713;-35.352;149.036;2023-03-23T13:06:04;0.75;;;0.70;;
40022;SDS011;25713;-35.352;149.036;2023-03-23T13:08:38;0.85;;;0.55;;
40022;SDS011;25713;-35.352;149.036;2023-03-23T13:11:11;0.60;;;0.55;;
40022;SDS011;25713;-35.352;149.036;2023-03-23T13:13:49;0.60;;;0.60;;
40022;SDS011;25713;-35.352;149.036;2023-03-23T13:16:25;0.88;;;0.60;;
40022;SDS011;25713;-35.352;149.036;2023-03-23T13:19:06;1.85;;;0.75;;
40022;SDS011;25713;-35.352;149.036;2023-03-23T13:21:41;0.95;;;0.60;;
40022;SDS011;25713;-35.352;149.036;2023-03-23T13:24:14;1.13;;;0.68;;
40022;SDS011;25713;-35.352;149.036;2023-03-23T13:26:48;0.60;;;0.60;;
40022;SDS011;25713;-35.352;149.036;2023-03-23T13:29:19;0.75;;;0.68;;
40022;SDS011;25713;-35.352;149.036;2023-03-23T13:31:50;1.00;;;0.60;;
40022;SDS011;25713;-35.352;149.036;2023-03-23T13:34:22;3.92;;;0.90;;
40022;SDS011;25713;-35.352;149.036;2023-03-23T13:36:53;1.55;;;0.60;;
40022;SDS011;25713;-35.352;149.036;2023-03-23T13:39:25;1.07;;;0.60;;
40022;SDS011;25713;-35.352;149.036;2023-03-23T13:47:14;2.75;;;0.80;;
40022;SDS011;25713;-35.352;149.036;2023-03-23T13:49:56;0.50;;;0.50;;
40022;SDS011;25713;-35.352;149.036;2023-03-23T13:52:36;2.15;;;0.60;;
40022;SDS011;25713;-35.352;149.036;2023-03-23T13:55:21;0.95;;;0.70;;
40022;SDS011;25713;-35.352;149.036;2023-03-23T13:58:08;1.38;;;0.75;;
40022;SDS011;25713;-35.352;149.036;2023-03-23T14:00:46;0.95;;;0.82;;
40022;SDS011;25713;-35.352;149.036;2023-03-23T14:03:17;1.13;;;0.70;;
40022;SDS011;25713;-35.352;149.036;2023-03-23T14:06:02;2.25;;;0.90;;
40022;SDS011;25713;-35.352;149.036;2023-03-23T14:08:48;0.75;;;0.75;;
40022;SDS011;25713;-35.352;149.036;2023-03-23T14:11:20;2.17;;;0.68;;
40022;SDS011;25713;-35.352;149.036;2023-03-23T14:13:58;0.60;;;0.60;;
40022;SDS011;25713;-35.352;149.036;2023-03-23T14:16:36;2.60;;;0.70;;
40022;SDS011;25713;-35.352;149.036;2023-03-23T14:19:14;1.15;;;0.80;;
40022;SDS011;25713;-35.352;149.036;2023-03-23T14:21:51;0.85;;;0.63;;
40022;SDS011;25713;-35.352;149.036;2023-03-23T14:24:22;2.72;;;0.82;;
40022;SDS011;25713;-35.352;149.036;2023-03-23T14:26:53;3.75;;;0.77;;
40022;SDS011;25713;-35.352;149.036;2023-03-23T14:29:37;1.50;;;0.63;;
40022;SDS011;25713;-35.352;149.036;2023-03-23T14:32:07;1.35;;;0.65;;
40022;SDS011;25713;-35.352;149.036;2023-03-23T14:34:40;2.17;;;0.70;;
40022;SDS011;25713;-35.352;149.036;2023-03-23T14:37:12;1.00;;;0.70;;
40022;SDS011;25713;-35.352;149.036;2023-03-23T14:39:44;1.00;;;0.60;;
40022;SDS011;25713;-35.352;149.036;2023-03-23T14:42:15;1.58;;;0.70;;
40022;SDS011;25713;-35.352;149.036;2023-03-23T14:44:48;3.92;;;1.00;;
40022;SDS011;25713;-35.352;149.036;2023-03-23T14:47:20;2.50;;;0.80;;
40022;SDS011;25713;-35.352;149.036;2023-03-23T15:51:56;1.40;;;0.85;;
40022;SDS011;25713;-35.352;149.036;2023-03-23T15:54:29;2.47;;;0.77;;
40022;SDS011;25713;-35.352;149.036;2023-03-23T15:57:00;5.78;;;0.95;;
40022;SDS011;25713;-35.352;149.036;2023-03-23T15:59:31;1.42;;;0.70;;
40022;SDS011;25713;-35.352;149.036;2023-03-23T16:02:00;2.42;;;0.80;;
40022;SDS011;25713;-35.352;149.036;2023-03-23T16:04:30;1.17;;;0.73;;
40022;SDS011;25713;-35.352;149.036;2023-03-23T16:07:01;0.88;;;0.73;;
40022;SDS011;25713;-35.352;149.036;2023-03-23T16:09:30;1.60;;;0.80;;
40022;SDS011;25713;-35.352;149.036;2023-03-23T16:12:00;2.40;;;0.60;;
40022;SDS011;25713;-35.352;149.036;2023-03-23T16:14:29;1.08;;;0.73;;
40022;SDS011;25713;-35.352;149.036;2023-03-23T16:16:59;0.63;;;0.60;;
40022;SDS011;25713;-35.352;149.036;2023-03-23T16:19:28;1.98;;;0.80;;